Fish Haven, Idaho
Current Conditions -  °F | °C
As of 12:51 PM on Sunday 23 Nov 2014 (Local Time) from KLGU Reporting Station
Broken Clouds Broken Clouds  
Wind Chill: 32°   Ceiling: 5000
Heat Index: 38°   Visibility: 10mi
Dew Point: 22°   Wind: 8mph
Humidity: 53%   Direction: 320°NW
Pressure: 30.2"   Gusts: NA
Location:  42.04°N, 111.4°W
Report Text: KLGU 231951Z AUTO 32007KT 10SM FEW041 BKN050 BKN060 03/M06 A3020 RMK AO2 SLP237 T00331056
Loading
Personal Weather Stations






























Interactive Weather Map New forecast layout! Learn more

10-Day Weather Forecast

Advertisements
Track Severe Weather on mobile